Bay Phoenix — A8OE5 — position and weather

sailwx.info

Track history (hours):
 
Tides and Currents Weather Stations Pressure Air Temp Water Temp Dewpoint Dewpoint Depression Visibility Wind Speed Wind Dir Waves Ship Positions

Bay Phoenix

Last reported at 2014-Jul-19 08:29 UTC. Time now 2014-Sep-16 15:28 UTC.
Position N 36°05' W 002°47'.
Warning: this ship's position is 59 days out of date.

Length 134 m; draft 5 m.

Type: Cargo ship. MMSI: 636015543.

Date/timePositionNaut miles runAvg speedWind from/ knotsBaromVisibWave heightAir tempDewpointWater temp
2014-Jul-19 08:29N 36°05' W 002°47'1916.6
2014-Jul-19 07:22N 36°02' W 002°24'4716.7
2014-Jul-19 04:32N 35°56' W 001°26'  
2014-Jul-12 14:28N 35°58' W 005°20'10717.6
2014-Jul-12 08:21N 35°49' W 007°32'6517.0
2014-Jul-12 04:33N 35°45' W 008°52'1616.7
2014-Jul-12 03:33N 35°44' W 009°12'1716.7
2014-Jul-12 02:34N 35°43' W 009°33'1716.7
2014-Jul-12 01:33N 35°42' W 009°53'1716.8
2014-Jul-12 00:33N 35°41' W 010°14'1716.8
2014-Jul-11 23:33N 35°39' W 010°35'1717.0
2014-Jul-11 22:33N 35°39' W 010°55'1717.0
2014-Jul-11 21:33N 35°38' W 011°16'1817.3
2014-Jul-11 20:31N 35°37' W 011°38'1716.7
2014-Jul-11 19:30N 35°36' W 011°59'1616.2
2014-Jul-11 18:31N 35°35' W 012°18'1616.1
2014-Jul-11 17:31N 35°34' W 012°38'1516.0
2014-Jul-11 16:33N 35°34' W 012°57'1815.6
2014-Jul-11 15:24N 35°32' W 013°19'1415.4
2014-Jul-11 14:30N 35°32' W 013°36'1515.6
2014-Jul-11 13:33N 35°31' W 013°54'6615.8
2014-Jul-11 09:22N 35°27' W 015°15'1215.4
2014-Jul-11 08:33N 35°26' W 015°31'39815.3
2014-Jul-10 06:28N 35°03' W 023°37'3015.8
2014-Jul-10 04:33N 35°00' W 024°14'2015.6
2014-Jul-10 03:18N 34°59' W 024°38'1215.8
2014-Jul-10 02:32N 34°59' W 024°52'1615.9
2014-Jul-10 01:31N 34°58' W 025°12'2016.1
2014-Jul-10 00:16N 34°56' W 025°37'1916.2
2014-Jul-09 23:06N 34°55' W 025°60'916.5
2014-Jul-09 22:32N 34°55' W 026°11'1716.1
2014-Jul-09 21:31N 34°54' W 026°31'  
Track history (hours):
 
Tides and Currents Weather Stations Pressure Air Temp Water Temp Dewpoint Dewpoint Depression Visibility Wind Speed Wind Dir Waves Ship Positions

Bay Phoenix

Last reported at 2014-Jul-19 08:29 UTC. Time now 2014-Sep-16 15:28 UTC.
Position N 36°05' W 002°47'.
Warning: this ship's position is 59 days out of date.

Length 134 m; draft 5 m.

Type: Cargo ship. MMSI: 636015543.

Date/timePositionNaut miles runAvg speedWind from/ knotsBaromVisibWave heightAir tempDewpointWater temp
2014-Jul-19 08:29N 36°05' W 002°47'1916.6
2014-Jul-19 07:22N 36°02' W 002°24'4716.7
2014-Jul-19 04:32N 35°56' W 001°26'  
2014-Jul-12 14:28N 35°58' W 005°20'10717.6
2014-Jul-12 08:21N 35°49' W 007°32'6517.0
2014-Jul-12 04:33N 35°45' W 008°52'1616.7
2014-Jul-12 03:33N 35°44' W 009°12'1716.7
2014-Jul-12 02:34N 35°43' W 009°33'1716.7
2014-Jul-12 01:33N 35°42' W 009°53'1716.8
2014-Jul-12 00:33N 35°41' W 010°14'1716.8
2014-Jul-11 23:33N 35°39' W 010°35'1717.0
2014-Jul-11 22:33N 35°39' W 010°55'1717.0
2014-Jul-11 21:33N 35°38' W 011°16'1817.3
2014-Jul-11 20:31N 35°37' W 011°38'1716.7
2014-Jul-11 19:30N 35°36' W 011°59'1616.2
2014-Jul-11 18:31N 35°35' W 012°18'1616.1
2014-Jul-11 17:31N 35°34' W 012°38'1516.0
2014-Jul-11 16:33N 35°34' W 012°57'1815.6
2014-Jul-11 15:24N 35°32' W 013°19'1415.4
2014-Jul-11 14:30N 35°32' W 013°36'1515.6
2014-Jul-11 13:33N 35°31' W 013°54'6615.8
2014-Jul-11 09:22N 35°27' W 015°15'1215.4
2014-Jul-11 08:33N 35°26' W 015°31'39815.3
2014-Jul-10 06:28N 35°03' W 023°37'3015.8
2014-Jul-10 04:33N 35°00' W 024°14'2015.6
2014-Jul-10 03:18N 34°59' W 024°38'1215.8
2014-Jul-10 02:32N 34°59' W 024°52'1615.9
2014-Jul-10 01:31N 34°58' W 025°12'2016.1
2014-Jul-10 00:16N 34°56' W 025°37'1916.2
2014-Jul-09 23:06N 34°55' W 025°60'916.5
2014-Jul-09 22:32N 34°55' W 026°11'1716.1
2014-Jul-09 21:31N 34°54' W 026°31'  

Dump ship's entire track history